Time;durP1;ratioP1;P1;durP2;ratioP2;P2;SDS_P1;SDS_P2;PMS_P1;PMS_P2;Temp;Humidity;BMP_temperature;BMP_pressure;BME280_temperature;BME280_humidity;BME280_pressure;Samples;Min_cycle;Max_cycle;Signal;HPM_P1;HPM_P2
2021/11/03 00:01:33;;;;;;;5.93;3.67;;;6.70;99.90;;;;;;5014329;28;20080;-85
2021/11/03 00:04:00;;;;;;;7.25;3.80;;;6.70;99.90;;;;;;5013803;28;20151;-85
2021/11/03 00:06:27;;;;;;;4.68;3.33;;;6.40;99.90;;;;;;5014762;28;20037;-85
2021/11/03 00:08:58;;;;;;;5.25;2.65;;;6.40;99.90;;;;;;5014754;28;20125;-85
2021/11/03 00:11:24;;;;;;;5.13;2.78;;;6.60;99.90;;;;;;5014410;28;20018;-85
2021/11/03 00:13:51;;;;;;;4.28;3.10;;;6.60;99.90;;;;;;5018687;28;20025;-85
2021/11/03 00:16:17;;;;;;;4.07;2.70;;;6.50;99.90;;;;;;5000811;28;20033;-85
2021/11/03 00:18:42;;;;;;;4.30;2.70;;;6.50;99.90;;;;;;5014310;28;20080;-85
2021/11/03 00:21:08;;;;;;;5.95;2.97;;;6.30;99.90;;;;;;5013551;28;20497;-85
2021/11/03 00:23:35;;;;;;;9.18;3.13;;;6.30;99.90;;;;;;5014217;28;20026;-85
2021/11/03 00:26:00;;;;;;;3.75;2.53;;;6.40;99.90;;;;;;5014100;28;20037;-85
2021/11/03 00:28:26;;;;;;;3.85;2.53;;;6.40;99.90;;;;;;5014035;28;20030;-85
2021/11/03 00:30:55;;;;;;;7.13;3.13;;;6.50;99.90;;;;;;5015705;28;20396;-85
2021/11/03 00:33:23;;;;;;;3.22;2.40;;;6.30;99.90;;;;;;5014316;28;20040;-85
2021/11/03 00:35:49;;;;;;;3.88;2.30;;;6.30;99.90;;;;;;5014245;28;20072;-85
2021/11/03 00:38:14;;;;;;;5.38;2.60;;;6.60;99.90;;;;;;5013389;28;20054;-85
2021/11/03 00:40:41;;;;;;;3.20;2.42;;;6.70;99.90;;;;;;5014321;28;20053;-85
2021/11/03 00:43:07;;;;;;;4.03;2.30;;;6.70;99.90;;;;;;5014174;28;20441;-85
2021/11/03 00:45:32;;;;;;;7.38;2.72;;;6.90;99.90;;;;;;5013779;28;20146;-85
2021/11/03 00:47:58;;;;;;;3.35;2.50;;;7.20;99.90;;;;;;5015434;28;20573;-85
2021/11/03 00:50:24;;;;;;;3.70;2.42;;;7.50;99.90;;;;;;5016031;28;20052;-85
2021/11/03 00:52:50;;;;;;;3.97;2.47;;;7.40;99.90;;;;;;5014525;28;20033;-85
2021/11/03 00:55:17;;;;;;;3.88;2.40;;;7.50;99.90;;;;;;5013152;28;20482;-85
2021/11/03 00:57:44;;;;;;;4.50;2.40;;;7.40;99.90;;;;;;5013846;28;20135;-85
2021/11/03 01:00:11;;;;;;;3.60;2.20;;;7.10;99.90;;;;;;5013911;28;20034;-85
2021/11/03 01:02:37;;;;;;;5.10;2.55;;;7.00;99.90;;;;;;5013750;28;20030;-85
2021/11/03 01:05:06;;;;;;;4.65;2.70;;;6.70;99.90;;;;;;5013896;28;20034;-85
2021/11/03 01:07:31;;;;;;;4.15;2.58;;;6.60;99.90;;;;;;5014830;28;20026;-85
2021/11/03 01:09:57;;;;;;;4.10;2.38;;;6.70;99.90;;;;;;5013702;28;20029;-85
2021/11/03 01:12:23;;;;;;;3.70;2.80;;;6.70;99.90;;;;;;5012820;28;20033;-85
2021/11/03 01:14:49;;;;;;;5.18;2.60;;;6.70;99.90;;;;;;5013823;28;20037;-86
2021/11/03 01:17:14;;;;;;;10.63;2.88;;;6.70;99.90;;;;;;5013723;28;20410;-85
2021/11/03 01:19:41;;;;;;;4.65;2.60;;;6.80;99.90;;;;;;5014039;28;20478;-85
2021/11/03 01:22:07;;;;;;;4.07;2.70;;;6.90;99.90;;;;;;5016480;28;20056;-85
2021/11/03 01:24:33;;;;;;;3.72;2.20;;;7.00;99.90;;;;;;5016480;28;20484;-85
2021/11/03 01:26:59;;;;;;;5.57;2.88;;;6.90;99.90;;;;;;5016035;28;20056;-85
2021/11/03 01:29:25;;;;;;;4.82;2.67;;;6.90;99.90;;;;;;5033874;28;20470;-85
2021/11/03 01:31:50;;;;;;;3.92;2.55;;;6.70;99.90;;;;;;5016126;28;20052;-85
2021/11/03 01:34:16;;;;;;;7.32;2.63;;;6.80;99.90;;;;;;5016349;28;20478;-85
2021/11/03 01:36:42;;;;;;;5.20;2.60;;;6.70;99.90;;;;;;5016655;28;20160;-85
2021/11/03 01:39:08;;;;;;;4.70;3.00;;;6.80;99.90;;;;;;5017182;28;20108;-86
2021/11/03 01:41:36;;;;;;;4.22;2.63;;;6.70;99.90;;;;;;5035071;28;20100;-86
2021/11/03 01:44:03;;;;;;;4.72;2.85;;;6.70;99.90;;;;;;5016899;28;20030;-87
2021/11/03 01:46:47;;;;;;;4.88;2.80;;;6.80;99.90;;;;;;5017503;28;20025;-87
2021/11/03 01:49:30;;;;;;;3.72;2.40;;;6.80;99.90;;;;;;5034256;28;20034;-87
2021/11/03 01:51:59;;;;;;;3.13;1.77;;;6.90;99.90;;;;;;5017601;28;20029;-88
2021/11/03 01:54:51;;;;;;;4.13;2.40;;;7.10;99.90;;;;;;5017540;28;20053;-88
2021/11/03 01:57:43;;;;;;;5.95;2.20;;;7.10;99.90;;;;;;5018696;28;20443;-89
2021/11/03 02:00:14;;;;;;;6.38;2.33;;;7.30;99.90;;;;;;5016236;28;20022;-89
2021/11/03 02:02:42;;;;;;;6.38;2.55;;;7.10;99.90;;;;;;5018388;28;20033;-90
2021/11/03 02:05:10;;;;;;;5.25;2.30;;;7.00;99.90;;;;;;5018775;28;20037;-90
2021/11/03 02:07:37;;;;;;;3.75;2.30;;;6.90;99.90;;;;;;5018589;28;20116;-90
2021/11/03 02:10:04;;;;;;;4.47;2.45;;;7.00;99.90;;;;;;5018429;28;20432;-90
2021/11/03 02:12:30;;;;;;;3.90;2.33;;;7.10;99.90;;;;;;5036502;28;20045;-90
2021/11/03 02:14:57;;;;;;;6.55;2.13;;;7.20;99.90;;;;;;5019023;28;20028;-90
2021/11/03 02:17:24;;;;;;;5.03;2.50;;;7.20;99.90;;;;;;5019079;28;20018;-90
2021/11/03 02:19:53;;;;;;;3.33;2.30;;;7.20;99.90;;;;;;5036184;28;20021;-89
2021/11/03 02:22:31;;;;;;;3.58;2.40;;;7.10;99.90;;;;;;5018779;28;20061;-90
2021/11/03 02:24:59;;;;;;;3.85;2.50;;;7.00;99.90;;;;;;5018843;28;20048;-90
2021/11/03 02:27:29;;;;;;;4.93;2.63;;;6.90;99.90;;;;;;5018903;28;20021;-90
2021/11/03 02:29:55;;;;;;;4.53;2.40;;;6.80;99.90;;;;;;5018774;28;20025;-90
2021/11/03 02:32:25;;;;;;;3.15;2.10;;;6.80;99.90;;;;;;5018698;28;20156;-91
2021/11/03 02:34:52;;;;;;;7.47;2.63;;;6.80;99.90;;;;;;5018668;28;20025;-90
2021/11/03 02:37:29;;;;;;;4.88;2.35;;;6.90;99.90;;;;;;5019129;28;20374;-91
2021/11/03 02:40:10;;;;;;;3.88;2.20;;;7.00;99.90;;;;;;5018645;28;20021;-89
2021/11/03 02:42:39;;;;;;;2.95;1.98;;;6.90;99.90;;;;;;5018398;28;20025;-90
2021/11/03 02:45:10;;;;;;;3.55;1.77;;;6.80;99.90;;;;;;5018439;28;20540;-91
2021/11/03 02:47:36;;;;;;;3.67;2.03;;;7.00;99.90;;;;;;5018702;28;20087;-90
2021/11/03 02:50:06;;;;;;;5.45;2.35;;;7.00;99.90;;;;;;5018499;28;20049;-91
2021/11/03 02:52:32;;;;;;;4.30;1.98;;;7.10;99.90;;;;;;5019107;28;20482;-90
2021/11/03 02:54:58;;;;;;;3.13;2.13;;;7.00;99.90;;;;;;5018966;28;20072;-91
2021/11/03 02:57:25;;;;;;;6.35;1.95;;;7.00;99.90;;;;;;5018557;28;20026;-90
2021/11/03 02:59:51;;;;;;;3.30;2.00;;;7.10;99.90;;;;;;5018308;28;20021;-91
2021/11/03 03:02:17;;;;;;;3.83;1.77;;;7.10;99.90;;;;;;5018234;28;20531;-91
2021/11/03 03:04:51;;;;;;;4.57;1.98;;;7.10;99.90;;;;;;5018298;28;20024;-91
2021/11/03 03:07:18;;;;;;;3.63;1.85;;;7.10;99.90;;;;;;5018753;28;20116;-90
2021/11/03 03:09:44;;;;;;;7.68;2.15;;;7.20;99.90;;;;;;5017760;28;20501;-91
2021/11/03 03:12:12;;;;;;;3.92;2.25;;;7.10;99.90;;;;;;5017776;28;20033;-90
2021/11/03 03:14:41;;;;;;;2.67;1.88;;;7.10;99.90;;;;;;5018394;28;20025;-91
2021/11/03 03:17:11;;;;;;;3.60;1.80;;;7.00;99.90;;;;;;5018056;28;20037;-91
2021/11/03 03:19:38;;;;;;;3.58;1.75;;;7.20;99.90;;;;;;5017912;28;20032;-90
2021/11/03 03:22:04;;;;;;;4.22;1.98;;;7.30;99.90;;;;;;5018162;28;20037;-91
2021/11/03 03:24:30;;;;;;;4.43;2.17;;;7.30;99.90;;;;;;5018318;28;20117;-91
2021/11/03 03:26:56;;;;;;;2.88;1.70;;;7.40;99.90;;;;;;5018383;28;20037;-92
2021/11/03 03:29:22;;;;;;;3.60;1.85;;;7.50;99.90;;;;;;5017844;28;20492;-90
2021/11/03 03:31:48;;;;;;;4.68;1.67;;;7.40;99.90;;;;;;5017796;28;20053;-91
2021/11/03 03:34:18;;;;;;;2.75;1.95;;;7.40;99.90;;;;;;5017720;28;20018;-91
2021/11/03 03:36:45;;;;;;;3.47;2.15;;;7.50;99.90;;;;;;5017928;28;20022;-91
2021/11/03 03:39:13;;;;;;;3.15;1.95;;;7.50;99.90;;;;;;5017988;28;20029;-91
2021/11/03 03:41:42;;;;;;;6.55;2.17;;;7.50;99.90;;;;;;5017374;28;20021;-90
2021/11/03 03:44:08;;;;;;;3.22;1.85;;;7.40;99.90;;;;;;5020990;28;20029;-90
2021/11/03 03:46:34;;;;;;;2.47;1.95;;;7.30;99.90;;;;;;5033206;28;20052;-90
2021/11/03 03:48:59;;;;;;;2.65;1.95;;;7.20;99.90;;;;;;5024745;28;20021;-90
2021/11/03 03:51:26;;;;;;;3.13;1.95;;;7.30;99.90;;;;;;5018989;28;20044;-90
2021/11/03 03:53:52;;;;;;;4.95;2.35;;;7.40;99.90;;;;;;5018132;28;20021;-91
2021/11/03 03:56:18;;;;;;;3.95;2.28;;;7.50;99.90;;;;;;5017811;28;20485;-91
2021/11/03 03:58:46;;;;;;;5.05;2.13;;;7.50;99.90;;;;;;5017387;28;20029;-90
2021/11/03 04:01:13;;;;;;;5.05;2.05;;;7.50;99.90;;;;;;5017339;28;20129;-91
2021/11/03 04:03:40;;;;;;;2.85;1.70;;;7.60;99.90;;;;;;5017717;28;20025;-90
2021/11/03 04:06:05;;;;;;;3.08;1.65;;;7.60;99.90;;;;;;5017280;28;20428;-91
2021/11/03 04:08:31;;;;;;;3.80;2.15;;;7.70;99.90;;;;;;5016939;28;20071;-90
2021/11/03 04:10:59;;;;;;;5.13;2.25;;;7.50;99.90;;;;;;5016853;28;20056;-90
2021/11/03 04:13:26;;;;;;;7.72;2.28;;;7.40;99.90;;;;;;5016713;28;20022;-89
2021/11/03 04:15:53;;;;;;;2.85;2.20;;;7.30;99.90;;;;;;5016886;28;20026;-91
2021/11/03 04:18:21;;;;;;;7.25;2.33;;;7.40;99.90;;;;;;5017323;28;20025;-90
2021/11/03 04:20:47;;;;;;;4.13;2.20;;;7.40;99.90;;;;;;5016293;28;20052;-90
2021/11/03 04:23:13;;;;;;;3.72;2.20;;;7.50;99.90;;;;;;5016882;28;20029;-91
2021/11/03 04:25:39;;;;;;;4.57;2.17;;;7.50;99.90;;;;;;5016592;28;20033;-90
2021/11/03 04:28:05;;;;;;;5.70;2.45;;;7.50;99.90;;;;;;5016933;28;20071;-91
2021/11/03 04:30:31;;;;;;;4.25;2.03;;;7.70;99.90;;;;;;5016570;28;20025;-91
2021/11/03 04:32:58;;;;;;;3.13;2.10;;;7.60;99.90;;;;;;5016327;28;20509;-91
2021/11/03 04:35:25;;;;;;;3.55;2.20;;;7.60;99.90;;;;;;5016498;28;20167;-91
2021/11/03 04:37:51;;;;;;;5.25;2.30;;;7.50;99.90;;;;;;5017454;28;20034;-90
2021/11/03 04:40:19;;;;;;;3.85;2.30;;;7.70;99.90;;;;;;5016434;28;20029;-90
2021/11/03 04:42:45;;;;;;;4.22;2.40;;;7.70;99.90;;;;;;5016826;28;20123;-91
2021/11/03 04:45:12;;;;;;;4.13;2.30;;;7.40;99.90;;;;;;5016577;28;20057;-91
2021/11/03 04:47:40;;;;;;;3.35;2.17;;;7.50;99.90;;;;;;5016387;28;20115;-91
2021/11/03 04:50:10;;;;;;;3.50;2.35;;;7.50;99.90;;;;;;5017050;28;20365;-91
2021/11/03 04:52:36;;;;;;;5.03;2.67;;;7.20;99.90;;;;;;5016336;28;20099;-89
2021/11/03 04:55:02;;;;;;;4.35;2.30;;;7.20;99.90;;;;;;5017054;28;20041;-91
2021/11/03 04:57:27;;;;;;;2.60;2.20;;;7.40;99.90;;;;;;5016871;28;20026;-91
2021/11/03 04:59:53;;;;;;;2.95;2.25;;;7.50;99.90;;;;;;5034584;28;20021;-90
2021/11/03 05:02:20;;;;;;;5.15;2.78;;;7.30;99.90;;;;;;5016453;28;20025;-91
2021/11/03 05:04:45;;;;;;;4.38;2.60;;;7.30;99.90;;;;;;5016866;28;20025;-90
2021/11/03 05:07:12;;;;;;;5.45;3.30;;;7.20;99.90;;;;;;5016154;28;20034;-90
2021/11/03 05:09:38;;;;;;;3.58;2.35;;;7.10;99.90;;;;;;5016209;28;20033;-91
2021/11/03 05:12:05;;;;;;;6.63;2.55;;;7.10;99.90;;;;;;5016191;28;20030;-91
2021/11/03 05:14:30;;;;;;;3.22;2.28;;;7.20;99.90;;;;;;5015996;28;20033;-90
2021/11/03 05:16:56;;;;;;;4.45;2.67;;;7.30;99.90;;;;;;5015908;28;20030;-91
2021/11/03 05:19:28;;;;;;;4.15;2.63;;;7.50;99.90;;;;;;5016746;28;20095;-91
2021/11/03 05:21:55;;;;;;;2.78;2.25;;;7.40;99.90;;;;;;5015962;28;20042;-90
2021/11/03 05:24:21;;;;;;;4.22;2.40;;;7.40;99.90;;;;;;5016212;28;20030;-91
2021/11/03 05:26:48;;;;;;;3.25;2.42;;;7.40;99.90;;;;;;5016332;28;20041;-91
2021/11/03 05:29:14;;;;;;;4.38;3.05;;;7.40;99.90;;;;;;5015925;28;20386;-91
2021/11/03 05:31:40;;;;;;;2.92;2.00;;;7.50;99.90;;;;;;5016344;28;20022;-91
2021/11/03 05:34:06;;;;;;;5.82;3.10;;;7.40;99.90;;;;;;5017994;28;20043;-91
2021/11/03 05:36:32;;;;;;;8.85;4.47;;;7.30;99.90;;;;;;5020370;28;20029;-90
2021/11/03 05:39:11;;;;;;;4.40;3.20;;;7.20;99.90;;;;;;5019927;28;20116;-91
2021/11/03 05:41:38;;;;;;;4.28;2.97;;;7.30;99.90;;;;;;5020537;28;20033;-90
2021/11/03 05:44:13;;;;;;;3.65;2.50;;;7.30;99.90;;;;;;5019567;28;20033;-90
2021/11/03 05:46:48;;;;;;;3.88;2.85;;;7.20;99.90;;;;;;5036998;28;20032;-90
2021/11/03 05:49:16;;;;;;;4.03;2.30;;;7.20;99.90;;;;;;5020428;28;20128;-90
2021/11/03 05:51:45;;;;;;;4.03;3.17;;;7.20;99.90;;;;;;5020147;28;20373;-91
2021/11/03 05:54:11;;;;;;;4.03;2.58;;;7.10;99.90;;;;;;5027750;28;20017;-89
2021/11/03 05:56:37;;;;;;;4.75;2.97;;;7.10;99.90;;;;;;5035243;28;20033;-89
2021/11/03 05:59:04;;;;;;;3.88;3.03;;;7.10;99.90;;;;;;5025610;28;20022;-90
2021/11/03 06:01:30;;;;;;;4.03;2.90;;;7.10;99.90;;;;;;5020350;28;20114;-91
2021/11/03 06:03:56;;;;;;;4.57;3.25;;;7.10;99.90;;;;;;5019712;28;20057;-90
2021/11/03 06:06:22;;;;;;;4.45;2.95;;;7.00;99.90;;;;;;5019169;28;20021;-91
2021/11/03 06:08:50;;;;;;;3.60;2.53;;;7.00;99.90;;;;;;5019361;28;20022;-90
2021/11/03 06:11:21;;;;;;;5.28;2.65;;;7.10;99.90;;;;;;5021337;28;20496;-91
2021/11/03 06:13:48;;;;;;;4.07;2.67;;;7.00;99.90;;;;;;5019633;28;20025;-91
2021/11/03 06:16:14;;;;;;;5.15;3.40;;;7.00;99.90;;;;;;5019387;28;20070;-91
2021/11/03 06:18:40;;;;;;;7.85;3.08;;;7.10;99.90;;;;;;5019148;28;20033;-91
2021/11/03 06:21:06;;;;;;;3.95;2.58;;;7.10;99.90;;;;;;5018820;28;20391;-91
2021/11/03 06:23:32;;;;;;;4.35;2.28;;;7.10;99.90;;;;;;5020003;28;20167;-91
2021/11/03 06:25:58;;;;;;;8.77;4.85;;;7.20;99.90;;;;;;5018870;28;20064;-91
2021/11/03 06:28:24;;;;;;;9.13;4.57;;;7.30;99.90;;;;;;5019310;28;20025;-91
2021/11/03 06:30:51;;;;;;;5.95;3.15;;;7.50;99.90;;;;;;5019103;28;20025;-91
2021/11/03 06:33:17;;;;;;;6.93;3.63;;;7.50;99.90;;;;;;5019320;28;20053;-92
2021/11/03 06:35:44;;;;;;;4.32;2.92;;;7.50;99.90;;;;;;5019841;28;20527;-90
2021/11/03 06:38:14;;;;;;;4.93;2.90;;;7.30;99.90;;;;;;5019139;28;20030;-91
2021/11/03 06:40:41;;;;;;;2.83;2.50;;;7.40;99.90;;;;;;5018709;28;20021;-91
2021/11/03 06:43:08;;;;;;;4.90;2.88;;;7.50;99.90;;;;;;5018908;28;20112;-91
2021/11/03 06:45:34;;;;;;;3.08;2.20;;;7.50;99.90;;;;;;5018731;28;20049;-91
2021/11/03 06:48:00;;;;;;;4.93;2.65;;;7.40;99.90;;;;;;5019141;28;20033;-91
2021/11/03 06:50:29;;;;;;;5.25;2.60;;;7.70;99.90;;;;;;5018817;28;20029;-91
2021/11/03 06:52:57;;;;;;;5.35;3.00;;;7.70;99.90;;;;;;5018839;28;20021;-90
2021/11/03 06:55:24;;;;;;;4.43;2.88;;;7.70;99.90;;;;;;5018846;28;20037;-91
2021/11/03 06:57:50;;;;;;;3.40;3.08;;;7.50;99.90;;;;;;5019052;28;20030;-91
2021/11/03 07:00:21;;;;;;;5.82;3.20;;;7.50;99.90;;;;;;5035962;28;20108;-91
2021/11/03 07:02:47;;;;;;;4.75;3.28;;;7.50;99.90;;;;;;5018551;28;20029;-90
2021/11/03 07:05:13;;;;;;;5.75;3.70;;;7.50;99.90;;;;;;5018677;28;20029;-91
2021/11/03 07:07:39;;;;;;;9.02;5.38;;;7.30;99.90;;;;;;5018263;28;20028;-92
2021/11/03 07:10:06;;;;;;;9.98;6.22;;;7.30;99.90;;;;;;5018438;28;20021;-91
2021/11/03 07:12:32;;;;;;;8.52;5.00;;;7.30;99.90;;;;;;5018533;28;20026;-91
2021/11/03 07:14:58;;;;;;;11.30;5.55;;;7.20;99.90;;;;;;5018790;28;20025;-90
2021/11/03 07:17:24;;;;;;;8.95;5.03;;;7.30;99.90;;;;;;5018409;28;20052;-90
2021/11/03 07:19:49;;;;;;;6.82;4.18;;;7.20;99.90;;;;;;5017825;28;20568;-91
2021/11/03 07:22:15;;;;;;;12.15;5.22;;;7.20;99.90;;;;;;5018676;28;20095;-91
2021/11/03 07:24:41;;;;;;;7.90;5.72;;;7.20;99.90;;;;;;5018188;28;20025;-91
2021/11/03 07:27:08;;;;;;;7.05;4.38;;;7.20;99.90;;;;;;5017829;28;20033;-91
2021/11/03 07:29:34;;;;;;;6.40;4.30;;;7.30;99.90;;;;;;5017877;28;20025;-90
2021/11/03 07:32:00;;;;;;;4.85;3.80;;;7.50;99.90;;;;;;5017748;28;20021;-90
2021/11/03 07:34:26;;;;;;;6.63;4.00;;;7.60;99.90;;;;;;5018245;28;20026;-90
2021/11/03 07:36:52;;;;;;;6.07;4.10;;;7.60;99.90;;;;;;5017622;28;20025;-90
2021/11/03 07:39:19;;;;;;;6.47;3.70;;;7.70;99.90;;;;;;5017718;28;20029;-91
2021/11/03 07:41:45;;;;;;;6.20;4.85;;;7.70;99.90;;;;;;5017258;28;20029;-91
2021/11/03 07:44:12;;;;;;;7.50;3.92;;;7.50;99.90;;;;;;5017012;28;20396;-90
2021/11/03 07:46:38;;;;;;;9.23;6.50;;;7.60;99.90;;;;;;5016856;28;20033;-85
2021/11/03 07:49:04;;;;;;;4.53;3.67;;;7.80;99.90;;;;;;5016953;28;20057;-84
2021/11/03 07:51:31;;;;;;;5.60;3.50;;;7.90;99.90;;;;;;5016438;28;20021;-85
2021/11/03 07:53:59;;;;;;;5.68;3.55;;;8.00;99.90;;;;;;5016458;28;20367;-84
2021/11/03 07:56:26;;;;;;;8.35;3.70;;;8.10;99.90;;;;;;5015631;28;20025;-84
2021/11/03 07:58:54;;;;;;;4.88;3.55;;;8.10;99.90;;;;;;5017023;28;20026;-85
2021/11/03 08:01:21;;;;;;;5.75;3.50;;;8.10;99.90;;;;;;5016367;28;20028;-85
2021/11/03 08:03:46;;;;;;;6.05;3.20;;;8.20;99.90;;;;;;5016710;28;20033;-85
2021/11/03 08:06:14;;;;;;;4.30;3.00;;;8.20;99.90;;;;;;5016673;28;20415;-85
2021/11/03 08:08:53;;;;;;;4.18;3.17;;;8.10;99.90;;;;;;5016430;28;20111;-85
2021/11/03 08:11:19;;;;;;;6.85;3.20;;;8.10;99.90;;;;;;5016237;28;20017;-85
2021/11/03 08:13:45;;;;;;;7.90;4.82;;;8.20;99.90;;;;;;5016109;28;20025;-85
2021/11/03 08:16:11;;;;;;;8.15;4.30;;;8.10;99.90;;;;;;5016058;28;20026;-85
2021/11/03 08:18:42;;;;;;;9.55;4.35;;;8.20;99.90;;;;;;5033777;28;20108;-84
2021/11/03 08:21:11;;;;;;;6.32;3.65;;;8.30;99.90;;;;;;5015988;28;20045;-85
2021/11/03 08:23:37;;;;;;;8.27;3.45;;;8.30;99.90;;;;;;5015943;28;20099;-84
2021/11/03 08:26:04;;;;;;;7.05;3.60;;;8.30;99.90;;;;;;5016202;28;20029;-84
2021/11/03 08:28:30;;;;;;;4.13;2.88;;;8.30;99.90;;;;;;5015881;28;20021;-84
2021/11/03 08:30:56;;;;;;;4.97;2.85;;;8.40;99.90;;;;;;5015837;28;20028;-84
2021/11/03 08:33:44;;;;;;;7.15;2.72;;;8.40;99.90;;;;;;5015806;28;20047;-84
2021/11/03 08:36:12;;;;;;;3.65;2.17;;;8.40;99.90;;;;;;5033464;28;20033;-84
2021/11/03 08:38:38;;;;;;;2.75;2.10;;;8.50;99.90;;;;;;5015630;28;20030;-84
2021/11/03 08:41:05;;;;;;;3.35;2.03;;;8.50;99.90;;;;;;5015791;28;20029;-84
2021/11/03 08:43:31;;;;;;;4.63;2.47;;;8.40;99.90;;;;;;5033872;28;20037;-84
2021/11/03 08:45:57;;;;;;;4.15;2.10;;;8.50;99.90;;;;;;5015725;28;20033;-84
2021/11/03 08:48:25;;;;;;;3.55;1.90;;;8.40;99.90;;;;;;5015796;28;20112;-84
2021/11/03 08:50:51;;;;;;;3.97;2.33;;;8.50;99.90;;;;;;5033291;28;20022;-84
2021/11/03 08:53:18;;;;;;;3.42;2.00;;;8.50;99.90;;;;;;5015807;28;20029;-84
2021/11/03 08:55:46;;;;;;;2.92;2.05;;;8.50;99.90;;;;;;5033130;28;20036;-84
2021/11/03 08:58:14;;;;;;;2.63;1.70;;;8.50;99.90;;;;;;5015537;28;20025;-83
2021/11/03 09:00:42;;;;;;;3.58;2.13;;;8.60;99.90;;;;;;5015445;28;20030;-83
2021/11/03 09:03:10;;;;;;;4.07;2.30;;;8.60;99.90;;;;;;5033141;28;20473;-84
2021/11/03 09:05:36;;;;;;;4.88;2.42;;;8.60;99.90;;;;;;5015358;28;20029;-84
2021/11/03 09:08:02;;;;;;;3.90;2.17;;;8.70;99.90;;;;;;5018815;28;20043;-83
2021/11/03 09:10:32;;;;;;;3.50;2.17;;;8.80;99.90;;;;;;5021859;28;20022;-83
2021/11/03 09:12:59;;;;;;;7.35;2.90;;;8.90;99.90;;;;;;5021892;28;20432;-84
2021/11/03 09:15:25;;;;;;;3.90;2.20;;;8.90;99.90;;;;;;5021836;28;20039;-83
2021/11/03 09:17:52;;;;;;;3.03;1.92;;;9.00;99.90;;;;;;5022384;28;20032;-83
2021/11/03 09:20:19;;;;;;;4.13;2.05;;;9.10;99.90;;;;;;5021592;28;20056;-83
2021/11/03 09:22:45;;;;;;;5.07;2.10;;;9.30;99.90;;;;;;5039539;28;20021;-83
2021/11/03 09:25:15;;;;;;;3.90;2.38;;;9.30;99.90;;;;;;5021753;28;20100;-83
2021/11/03 09:27:42;;;;;;;5.88;2.35;;;9.30;99.90;;;;;;5021749;28;20017;-83
2021/11/03 09:30:10;;;;;;;2.72;1.70;;;9.30;99.90;;;;;;5021652;28;20025;-83
2021/11/03 09:32:37;;;;;;;4.90;2.30;;;9.40;99.90;;;;;;5021932;28;20055;-85
2021/11/03 09:35:04;;;;;;;4.90;2.22;;;9.40;99.90;;;;;;5022025;28;20027;-83
2021/11/03 09:37:31;;;;;;;4.75;2.20;;;9.20;99.90;;;;;;5021868;28;20485;-83
2021/11/03 09:39:57;;;;;;;4.70;1.85;;;9.20;99.90;;;;;;5021624;28;20029;-82
2021/11/03 09:42:25;;;;;;;7.75;2.45;;;9.20;99.90;;;;;;5021510;28;20022;-83
2021/11/03 09:44:53;;;;;;;4.13;1.70;;;9.20;99.90;;;;;;5039581;28;20018;-83
2021/11/03 09:47:28;;;;;;;3.25;1.83;;;9.20;99.90;;;;;;5021448;28;20081;-83
2021/11/03 09:50:12;;;;;;;2.67;1.60;;;9.20;99.90;;;;;;5021563;28;20028;-82
2021/11/03 09:52:43;;;;;;;2.88;2.00;;;9.40;99.90;;;;;;5039235;28;20084;-83
2021/11/03 09:55:18;;;;;;;3.10;1.85;;;9.40;99.90;;;;;;5021510;28;20040;-83
2021/11/03 09:57:55;;;;;;;3.15;1.58;;;9.40;99.90;;;;;;5021346;28;20473;-83
2021/11/03 10:00:32;;;;;;;4.15;2.13;;;9.40;99.90;;;;;;5021729;28;20017;-83
2021/11/03 10:03:33;;;;;;;2.67;1.83;;;9.40;99.90;;;;;;5021756;28;20068;-90
2021/11/03 10:06:37;;;;;;;3.10;1.85;;;9.30;99.90;;;;;;5012269;28;20049;-90
2021/11/03 10:09:04;;;;;;;2.63;1.80;;;9.30;99.90;;;;;;5019997;28;20371;-90
2021/11/03 10:11:41;;;;;;;3.05;1.80;;;9.20;99.90;;;;;;5022300;28;20029;-89
2021/11/03 10:14:09;;;;;;;3.38;1.80;;;9.30;99.90;;;;;;5030896;28;20026;-90
2021/11/03 10:16:41;;;;;;;4.60;1.70;;;9.20;99.90;;;;;;5039302;28;20036;-90
2021/11/03 10:19:09;;;;;;;4.55;1.80;;;9.20;99.90;;;;;;5026007;28;20422;-89
2021/11/03 10:21:43;;;;;;;3.97;1.90;;;9.10;99.90;;;;;;5019613;28;20049;-89
2021/11/03 10:24:11;;;;;;;5.35;1.63;;;9.10;99.90;;;;;;5019503;28;20025;-90
2021/11/03 10:27:10;;;;;;;3.50;2.10;;;9.10;99.90;;;;;;5019384;28;20493;-89
2021/11/03 10:29:44;;;;;;;3.45;2.10;;;9.20;99.90;;;;;;5020249;28;20376;-89
2021/11/03 10:32:39;;;;;;;3.28;1.83;;;9.30;99.90;;;;;;5018981;28;20021;-90
2021/11/03 10:35:23;;;;;;;;;;;9.30;99.90;;;;;;4998557;28;20026;-89
2021/11/03 10:37:59;;;;;;;5.03;1.50;;;9.30;99.90;;;;;;5018534;28;19905;-89
2021/11/03 10:40:30;;;;;;;3.45;2.00;;;9.30;99.90;;;;;;5018479;28;20026;-90
2021/11/03 10:43:02;;;;;;;3.55;1.55;;;9.30;99.90;;;;;;5018363;28;20025;-88
2021/11/03 10:45:33;;;;;;;2.63;1.50;;;9.30;99.90;;;;;;5018198;28;20413;-90
2021/11/03 10:48:24;;;;;;;4.30;1.40;;;9.20;99.90;;;;;;5019008;28;20041;-89
2021/11/03 10:50:56;;;;;;;4.07;2.28;;;9.20;99.90;;;;;;5018317;28;20453;-88
2021/11/03 10:53:28;;;;;;;3.40;1.90;;;9.20;99.90;;;;;;5018329;28;20076;-89
2021/11/03 10:56:18;;;;;;;2.28;1.70;;;9.10;99.90;;;;;;5018250;28;20022;-88
2021/11/03 10:58:50;;;;;;;3.42;2.10;;;9.10;99.90;;;;;;5018137;28;20033;-88
2021/11/03 11:01:44;;;;;;;3.50;2.28;;;9.10;99.90;;;;;;5017748;28;20393;-89
2021/11/03 11:04:36;;;;;;;3.72;2.15;;;9.20;99.90;;;;;;5018698;28;20037;-88
2021/11/03 11:07:28;;;;;;;3.20;2.47;;;9.20;99.90;;;;;;5012935;28;20478;-88
2021/11/03 11:09:59;;;;;;;3.78;2.50;;;9.20;99.90;;;;;;5013848;28;20110;-89
2021/11/03 11:12:41;;;;;;;2.33;1.90;;;9.20;99.90;;;;;;5018589;28;20041;-88
2021/11/03 11:15:13;;;;;;;4.90;2.25;;;9.20;99.90;;;;;;5017393;28;20063;-88
2021/11/03 11:17:52;;;;;;;4.63;2.20;;;9.20;99.90;;;;;;5017398;28;20071;-88
2021/11/03 11:20:33;;;;;;;4.22;2.22;;;9.20;99.90;;;;;;5017285;28;20096;-88
2021/11/03 11:23:12;;;;;;;4.03;2.50;;;9.20;99.90;;;;;;5018028;28;20472;-89
2021/11/03 11:25:52;;;;;;;6.10;3.30;;;9.20;99.90;;;;;;5017507;28;20045;-88
2021/11/03 11:28:36;;;;;;;4.60;2.95;;;9.20;99.90;;;;;;5017759;28;20041;-89
2021/11/03 11:31:44;;;;;;;9.35;3.65;;;9.10;99.90;;;;;;5016296;28;20013;-88
2021/11/03 11:34:10;;;;;;;7.88;3.10;;;9.00;99.90;;;;;;5017755;28;20034;-88
2021/11/03 11:36:56;;;;;;;6.53;2.78;;;8.90;99.90;;;;;;5018130;28;20087;-88
2021/11/03 11:39:47;;;;;;;5.38;2.72;;;8.90;99.90;;;;;;5017736;28;20026;-88
2021/11/03 11:42:28;;;;;;;9.40;2.10;;;8.80;99.90;;;;;;5017072;28;20035;-88
2021/11/03 11:45:01;;;;;;;3.83;2.38;;;8.90;99.90;;;;;;5017251;28;20144;-88
2021/11/03 11:47:38;;;;;;;4.47;3.08;;;8.80;99.90;;;;;;5017261;28;20037;-88
2021/11/03 11:50:21;;;;;;;4.38;2.55;;;8.80;99.90;;;;;;5016961;28;20065;-89
2021/11/03 11:52:47;;;;;;;4.22;2.80;;;8.80;99.90;;;;;;5017788;28;20018;-88
2021/11/03 11:55:13;;;;;;;6.07;2.70;;;8.90;99.90;;;;;;5017551;28;20022;-88
2021/11/03 11:57:43;;;;;;;6.78;3.55;;;8.90;99.90;;;;;;5016733;28;20381;-88
2021/11/03 12:00:09;;;;;;;6.75;3.75;;;8.90;99.90;;;;;;5017406;28;20017;-88
2021/11/03 12:02:45;;;;;;;5.15;3.00;;;8.80;99.90;;;;;;5017014;28;20026;-88
2021/11/03 12:05:43;;;;;;;4.00;2.20;;;8.90;99.90;;;;;;5016241;28;20049;-88
2021/11/03 12:08:09;;;;;;;3.85;2.33;;;8.90;99.90;;;;;;5016642;28;20017;-88
2021/11/03 12:10:53;;;;;;;8.70;4.90;;;8.90;99.90;;;;;;5016382;28;20400;-88
2021/11/03 12:13:30;;;;;;;10.50;3.60;;;8.80;99.90;;;;;;5016448;28;20017;-87
2021/11/03 12:15:55;;;;;;;10.32;2.88;;;8.80;99.90;;;;;;5017416;28;20472;-87
2021/11/03 12:18:27;;;;;;;4.88;3.55;;;8.70;99.90;;;;;;5016466;28;20029;-89
2021/11/03 12:21:02;;;;;;;2.67;1.98;;;8.70;99.90;;;;;;5012973;28;20127;-87
2021/11/03 12:23:57;;;;;;;3.67;2.25;;;8.70;99.90;;;;;;5017467;28;20030;-88
2021/11/03 12:26:26;;;;;;;4.20;2.67;;;8.70;99.90;;;;;;5026816;28;20030;-88
2021/11/03 12:29:03;;;;;;;4.57;2.50;;;8.70;99.90;;;;;;5018545;28;20026;-88
2021/11/03 12:31:47;;;;;;;4.55;2.30;;;8.70;99.90;;;;;;5014131;28;20516;-88
2021/11/03 12:34:36;;;;;;;3.47;2.17;;;8.70;99.90;;;;;;5013215;28;20030;-87
2021/11/03 12:37:04;;;;;;;3.85;1.90;;;8.70;99.90;;;;;;5013526;28;20026;-86
2021/11/03 12:39:33;;;;;;;2.85;1.58;;;8.70;99.90;;;;;;5013146;28;20048;-87
2021/11/03 12:42:20;;;;;;;4.93;2.08;;;8.80;99.90;;;;;;5012587;28;20022;-88
2021/11/03 12:44:51;;;;;;;2.63;1.70;;;8.70;99.90;;;;;;5013682;28;20529;-88
2021/11/03 12:47:20;;;;;;;4.35;1.58;;;8.60;99.90;;;;;;5013499;28;20030;-88
2021/11/03 12:50:04;;;;;;;1.98;1.27;;;8.70;99.90;;;;;;5013030;28;20029;-87
2021/11/03 12:52:31;;;;;;;4.20;1.40;;;8.60;99.90;;;;;;5013668;28;20407;-88
2021/11/03 12:54:59;;;;;;;2.95;1.55;;;8.60;99.90;;;;;;5013298;28;20029;-87
2021/11/03 12:57:27;;;;;;;2.50;1.27;;;8.60;99.90;;;;;;5013165;28;20033;-87
2021/11/03 13:00:05;;;;;;;2.28;1.40;;;8.60;99.90;;;;;;5013577;28;20026;-88
2021/11/03 13:02:37;;;;;;;5.05;2.45;;;8.70;99.90;;;;;;5013354;28;20030;-90
2021/11/03 13:05:21;;;;;;;3.55;2.13;;;8.70;99.90;;;;;;5012526;28;20509;-88
2021/11/03 13:07:48;;;;;;;5.37;2.13;;;8.70;99.90;;;;;;5012835;28;20033;-88
2021/11/03 13:10:37;;;;;;;3.30;1.33;;;8.70;99.90;;;;;;5012856;28;20026;-89
2021/11/03 13:13:14;;;;;;;5.93;1.10;;;8.70;99.90;;;;;;5013389;28;20022;-89